sensor_id;sensor_type;location;lat;lon;timestamp;P1;durP1;ratioP1;P2;durP2;ratioP2
63110;SDS011;49201;53.426;10.300;2023-05-10T00:01:03;5.57;;;3.57;;
63110;SDS011;49201;53.426;10.300;2023-05-10T00:03:29;7.13;;;3.80;;
63110;SDS011;49201;53.426;10.300;2023-05-10T00:05:54;5.00;;;4.03;;
63110;SDS011;49201;53.426;10.300;2023-05-10T00:08:20;5.90;;;3.40;;
63110;SDS011;49201;53.426;10.300;2023-05-10T00:10:45;6.37;;;4.00;;
63110;SDS011;49201;53.426;10.300;2023-05-10T00:13:10;6.03;;;3.93;;
63110;SDS011;49201;53.426;10.300;2023-05-10T00:15:36;7.53;;;4.20;;
63110;SDS011;49201;53.426;10.300;2023-05-10T00:18:02;6.77;;;4.03;;
63110;SDS011;49201;53.426;10.300;2023-05-10T00:20:27;6.20;;;4.00;;
63110;SDS011;49201;53.426;10.300;2023-05-10T00:22:53;6.10;;;3.73;;
63110;SDS011;49201;53.426;10.300;2023-05-10T00:25:18;4.97;;;4.00;;
63110;SDS011;49201;53.426;10.300;2023-05-10T00:27:44;4.47;;;3.70;;
63110;SDS011;49201;53.426;10.300;2023-05-10T00:30:10;6.57;;;3.80;;
63110;SDS011;49201;53.426;10.300;2023-05-10T00:32:35;4.70;;;3.47;;
63110;SDS011;49201;53.426;10.300;2023-05-10T00:35:01;6.03;;;4.27;;
63110;SDS011;49201;53.426;10.300;2023-05-10T00:37:26;6.83;;;3.97;;
63110;SDS011;49201;53.426;10.300;2023-05-10T00:39:52;4.80;;;3.90;;
63110;SDS011;49201;53.426;10.300;2023-05-10T00:42:17;4.63;;;3.50;;
63110;SDS011;49201;53.426;10.300;2023-05-10T00:44:43;6.23;;;3.70;;
63110;SDS011;49201;53.426;10.300;2023-05-10T00:47:08;5.67;;;4.20;;
63110;SDS011;49201;53.426;10.300;2023-05-10T00:49:35;4.60;;;4.17;;
63110;SDS011;49201;53.426;10.300;2023-05-10T00:52:01;5.77;;;3.67;;
63110;SDS011;49201;53.426;10.300;2023-05-10T00:54:28;9.27;;;3.90;;
63110;SDS011;49201;53.426;10.300;2023-05-10T00:56:54;5.67;;;3.80;;
63110;SDS011;49201;53.426;10.300;2023-05-10T00:59:19;6.03;;;4.20;;
63110;SDS011;49201;53.426;10.300;2023-05-10T01:01:46;7.23;;;4.10;;
63110;SDS011;49201;53.426;10.300;2023-05-10T01:04:12;8.37;;;4.30;;
63110;SDS011;49201;53.426;10.300;2023-05-10T01:06:42;5.37;;;3.87;;
63110;SDS011;49201;53.426;10.300;2023-05-10T01:09:08;5.30;;;4.00;;
63110;SDS011;49201;53.426;10.300;2023-05-10T01:11:37;5.10;;;3.83;;
63110;SDS011;49201;53.426;10.300;2023-05-10T01:14:03;6.07;;;4.07;;
63110;SDS011;49201;53.426;10.300;2023-05-10T01:16:32;5.00;;;4.03;;
63110;SDS011;49201;53.426;10.300;2023-05-10T01:19:01;4.47;;;3.70;;
63110;SDS011;49201;53.426;10.300;2023-05-10T01:29:35;5.73;;;4.10;;
63110;SDS011;49201;53.426;10.300;2023-05-10T01:32:21;4.57;;;4.17;;
63110;SDS011;49201;53.426;10.300;2023-05-10T01:35:03;8.73;;;4.30;;
63110;SDS011;49201;53.426;10.300;2023-05-10T01:40:56;5.57;;;3.93;;
63110;SDS011;49201;53.426;10.300;2023-05-10T01:43:37;6.13;;;4.07;;
63110;SDS011;49201;53.426;10.300;2023-05-10T01:46:42;9.03;;;3.63;;
63110;SDS011;49201;53.426;10.300;2023-05-10T01:49:08;5.03;;;4.10;;
63110;SDS011;49201;53.426;10.300;2023-05-10T01:51:41;9.83;;;4.50;;
63110;SDS011;49201;53.426;10.300;2023-05-10T01:54:12;8.10;;;4.17;;
63110;SDS011;49201;53.426;10.300;2023-05-10T01:56:39;6.53;;;4.00;;
63110;SDS011;49201;53.426;10.300;2023-05-10T01:59:08;5.77;;;4.00;;
63110;SDS011;49201;53.426;10.300;2023-05-10T02:01:38;6.27;;;4.23;;
63110;SDS011;49201;53.426;10.300;2023-05-10T02:04:06;7.07;;;5.00;;
63110;SDS011;49201;53.426;10.300;2023-05-10T02:06:34;5.40;;;4.30;;
63110;SDS011;49201;53.426;10.300;2023-05-10T02:09:01;6.00;;;4.13;;
63110;SDS011;49201;53.426;10.300;2023-05-10T02:11:29;5.27;;;4.00;;
63110;SDS011;49201;53.426;10.300;2023-05-10T02:13:56;8.43;;;4.03;;
63110;SDS011;49201;53.426;10.300;2023-05-10T02:16:27;8.20;;;4.10;;
63110;SDS011;49201;53.426;10.300;2023-05-10T02:18:55;5.10;;;4.20;;
63110;SDS011;49201;53.426;10.300;2023-05-10T02:21:24;4.67;;;4.20;;
63110;SDS011;49201;53.426;10.300;2023-05-10T02:23:50;12.77;;;4.03;;
63110;SDS011;49201;53.426;10.300;2023-05-10T02:26:17;6.23;;;4.30;;
63110;SDS011;49201;53.426;10.300;2023-05-10T02:28:46;6.93;;;4.47;;
63110;SDS011;49201;53.426;10.300;2023-05-10T02:31:14;6.47;;;4.07;;
63110;SDS011;49201;53.426;10.300;2023-05-10T02:33:40;7.33;;;4.20;;
63110;SDS011;49201;53.426;10.300;2023-05-10T02:36:08;6.77;;;4.40;;
63110;SDS011;49201;53.426;10.300;2023-05-10T02:38:35;8.37;;;4.40;;
63110;SDS011;49201;53.426;10.300;2023-05-10T02:41:02;7.53;;;4.70;;
63110;SDS011;49201;53.426;10.300;2023-05-10T02:43:30;5.47;;;4.40;;
63110;SDS011;49201;53.426;10.300;2023-05-10T02:45:58;9.73;;;4.27;;
63110;SDS011;49201;53.426;10.300;2023-05-10T02:48:23;5.10;;;3.90;;
63110;SDS011;49201;53.426;10.300;2023-05-10T02:50:50;8.90;;;4.63;;
63110;SDS011;49201;53.426;10.300;2023-05-10T02:53:38;5.97;;;4.43;;
63110;SDS011;49201;53.426;10.300;2023-05-10T02:56:10;7.10;;;4.60;;
63110;SDS011;49201;53.426;10.300;2023-05-10T02:58:39;5.70;;;4.10;;
63110;SDS011;49201;53.426;10.300;2023-05-10T03:01:05;8.13;;;4.40;;
63110;SDS011;49201;53.426;10.300;2023-05-10T03:03:32;7.20;;;4.20;;
63110;SDS011;49201;53.426;10.300;2023-05-10T03:05:58;6.23;;;3.83;;
63110;SDS011;49201;53.426;10.300;2023-05-10T03:08:24;5.30;;;4.40;;
63110;SDS011;49201;53.426;10.300;2023-05-10T03:13:39;6.17;;;4.43;;
63110;SDS011;49201;53.426;10.300;2023-05-10T03:16:15;5.50;;;4.30;;
63110;SDS011;49201;53.426;10.300;2023-05-10T03:21:19;7.63;;;4.80;;
63110;SDS011;49201;53.426;10.300;2023-05-10T03:23:59;6.00;;;4.03;;
63110;SDS011;49201;53.426;10.300;2023-05-10T03:26:32;4.80;;;4.30;;
63110;SDS011;49201;53.426;10.300;2023-05-10T03:29:06;8.13;;;4.07;;
63110;SDS011;49201;53.426;10.300;2023-05-10T03:31:33;5.70;;;4.30;;
63110;SDS011;49201;53.426;10.300;2023-05-10T03:33:59;7.63;;;4.53;;
63110;SDS011;49201;53.426;10.300;2023-05-10T03:36:25;6.53;;;4.03;;
63110;SDS011;49201;53.426;10.300;2023-05-10T03:38:51;5.33;;;4.10;;
63110;SDS011;49201;53.426;10.300;2023-05-10T03:41:17;6.13;;;4.30;;
63110;SDS011;49201;53.426;10.300;2023-05-10T03:43:42;7.17;;;4.60;;
63110;SDS011;49201;53.426;10.300;2023-05-10T03:46:08;5.77;;;4.20;;
63110;SDS011;49201;53.426;10.300;2023-05-10T03:48:33;6.43;;;4.57;;
63110;SDS011;49201;53.426;10.300;2023-05-10T03:50:59;6.37;;;4.27;;
63110;SDS011;49201;53.426;10.300;2023-05-10T03:53:25;6.07;;;4.70;;
63110;SDS011;49201;53.426;10.300;2023-05-10T03:55:51;5.70;;;4.10;;
63110;SDS011;49201;53.426;10.300;2023-05-10T03:58:17;6.30;;;4.43;;
63110;SDS011;49201;53.426;10.300;2023-05-10T04:00:43;5.27;;;4.60;;
63110;SDS011;49201;53.426;10.300;2023-05-10T04:03:11;6.23;;;4.57;;
63110;SDS011;49201;53.426;10.300;2023-05-10T04:05:37;5.57;;;4.60;;
63110;SDS011;49201;53.426;10.300;2023-05-10T04:08:03;5.63;;;4.27;;
63110;SDS011;49201;53.426;10.300;2023-05-10T04:10:29;5.77;;;4.47;;
63110;SDS011;49201;53.426;10.300;2023-05-10T04:12:55;7.33;;;4.77;;
63110;SDS011;49201;53.426;10.300;2023-05-10T04:15:20;9.03;;;4.67;;
63110;SDS011;49201;53.426;10.300;2023-05-10T04:17:45;8.37;;;4.50;;
63110;SDS011;49201;53.426;10.300;2023-05-10T04:20:11;9.07;;;4.47;;
63110;SDS011;49201;53.426;10.300;2023-05-10T04:22:37;7.43;;;4.90;;
63110;SDS011;49201;53.426;10.300;2023-05-10T04:25:03;8.27;;;4.87;;
63110;SDS011;49201;53.426;10.300;2023-05-10T04:27:29;9.97;;;4.30;;
63110;SDS011;49201;53.426;10.300;2023-05-10T04:29:56;5.23;;;4.30;;
63110;SDS011;49201;53.426;10.300;2023-05-10T04:32:21;5.83;;;4.10;;
63110;SDS011;49201;53.426;10.300;2023-05-10T04:34:47;6.00;;;4.70;;
63110;SDS011;49201;53.426;10.300;2023-05-10T04:37:12;5.10;;;4.60;;
63110;SDS011;49201;53.426;10.300;2023-05-10T04:39:38;5.40;;;4.70;;
63110;SDS011;49201;53.426;10.300;2023-05-10T04:42:03;5.23;;;4.53;;
63110;SDS011;49201;53.426;10.300;2023-05-10T04:44:31;7.57;;;4.73;;
63110;SDS011;49201;53.426;10.300;2023-05-10T04:46:57;8.83;;;4.77;;
63110;SDS011;49201;53.426;10.300;2023-05-10T04:49:22;8.60;;;4.57;;
63110;SDS011;49201;53.426;10.300;2023-05-10T04:51:47;8.70;;;4.37;;
63110;SDS011;49201;53.426;10.300;2023-05-10T04:54:13;4.63;;;4.20;;
63110;SDS011;49201;53.426;10.300;2023-05-10T04:56:38;7.50;;;4.83;;
63110;SDS011;49201;53.426;10.300;2023-05-10T04:59:04;5.17;;;4.20;;
63110;SDS011;49201;53.426;10.300;2023-05-10T05:01:29;8.57;;;5.10;;
63110;SDS011;49201;53.426;10.300;2023-05-10T05:03:55;5.20;;;4.70;;
63110;SDS011;49201;53.426;10.300;2023-05-10T05:06:20;5.80;;;4.20;;
63110;SDS011;49201;53.426;10.300;2023-05-10T05:08:46;5.93;;;4.30;;
63110;SDS011;49201;53.426;10.300;2023-05-10T05:11:11;5.50;;;4.40;;
63110;SDS011;49201;53.426;10.300;2023-05-10T05:13:37;6.43;;;4.50;;
63110;SDS011;49201;53.426;10.300;2023-05-10T05:16:02;6.73;;;4.77;;
63110;SDS011;49201;53.426;10.300;2023-05-10T05:18:28;4.87;;;4.37;;
63110;SDS011;49201;53.426;10.300;2023-05-10T05:20:54;6.83;;;4.60;;
63110;SDS011;49201;53.426;10.300;2023-05-10T05:23:19;4.93;;;4.20;;
63110;SDS011;49201;53.426;10.300;2023-05-10T05:25:46;5.47;;;4.40;;
63110;SDS011;49201;53.426;10.300;2023-05-10T05:28:11;8.87;;;4.90;;
63110;SDS011;49201;53.426;10.300;2023-05-10T05:30:37;6.43;;;4.50;;
63110;SDS011;49201;53.426;10.300;2023-05-10T05:33:02;5.07;;;4.57;;
63110;SDS011;49201;53.426;10.300;2023-05-10T05:35:28;6.83;;;4.60;;
63110;SDS011;49201;53.426;10.300;2023-05-10T05:37:53;5.70;;;4.43;;
63110;SDS011;49201;53.426;10.300;2023-05-10T05:40:19;9.93;;;4.80;;
63110;SDS011;49201;53.426;10.300;2023-05-10T05:42:45;11.80;;;4.70;;
63110;SDS011;49201;53.426;10.300;2023-05-10T05:45:10;8.07;;;5.17;;
63110;SDS011;49201;53.426;10.300;2023-05-10T05:47:38;7.53;;;4.67;;
63110;SDS011;49201;53.426;10.300;2023-05-10T05:50:05;6.90;;;4.53;;
63110;SDS011;49201;53.426;10.300;2023-05-10T05:52:31;8.90;;;4.83;;
63110;SDS011;49201;53.426;10.300;2023-05-10T05:54:56;8.20;;;4.93;;
63110;SDS011;49201;53.426;10.300;2023-05-10T05:57:22;9.33;;;5.47;;
63110;SDS011;49201;53.426;10.300;2023-05-10T05:59:47;13.93;;;4.67;;
63110;SDS011;49201;53.426;10.300;2023-05-10T06:02:13;9.20;;;5.00;;
63110;SDS011;49201;53.426;10.300;2023-05-10T06:04:38;5.37;;;4.53;;
63110;SDS011;49201;53.426;10.300;2023-05-10T06:07:04;4.73;;;4.33;;
63110;SDS011;49201;53.426;10.300;2023-05-10T06:09:30;10.23;;;4.80;;
63110;SDS011;49201;53.426;10.300;2023-05-10T06:11:55;6.17;;;4.43;;
63110;SDS011;49201;53.426;10.300;2023-05-10T06:14:21;6.47;;;4.47;;
63110;SDS011;49201;53.426;10.300;2023-05-10T06:16:47;5.67;;;4.50;;
63110;SDS011;49201;53.426;10.300;2023-05-10T06:19:12;10.13;;;4.90;;
63110;SDS011;49201;53.426;10.300;2023-05-10T06:21:38;5.00;;;4.50;;
63110;SDS011;49201;53.426;10.300;2023-05-10T06:24:03;8.87;;;4.70;;
63110;SDS011;49201;53.426;10.300;2023-05-10T06:26:30;7.47;;;4.23;;
63110;SDS011;49201;53.426;10.300;2023-05-10T06:28:56;7.47;;;5.00;;
63110;SDS011;49201;53.426;10.300;2023-05-10T06:31:21;7.13;;;4.73;;
63110;SDS011;49201;53.426;10.300;2023-05-10T06:33:46;10.33;;;4.53;;
63110;SDS011;49201;53.426;10.300;2023-05-10T06:36:12;7.37;;;4.97;;
63110;SDS011;49201;53.426;10.300;2023-05-10T06:38:38;5.57;;;4.80;;
63110;SDS011;49201;53.426;10.300;2023-05-10T06:41:04;12.37;;;4.80;;
63110;SDS011;49201;53.426;10.300;2023-05-10T06:43:30;6.97;;;4.77;;
63110;SDS011;49201;53.426;10.300;2023-05-10T06:45:56;9.40;;;4.57;;
63110;SDS011;49201;53.426;10.300;2023-05-10T06:48:21;5.30;;;4.43;;
63110;SDS011;49201;53.426;10.300;2023-05-10T06:50:47;4.90;;;4.40;;
63110;SDS011;49201;53.426;10.300;2023-05-10T06:53:12;6.77;;;4.60;;
63110;SDS011;49201;53.426;10.300;2023-05-10T06:55:38;4.60;;;3.93;;
63110;SDS011;49201;53.426;10.300;2023-05-10T06:58:04;6.20;;;4.40;;
63110;SDS011;49201;53.426;10.300;2023-05-10T07:00:30;7.73;;;4.13;;
63110;SDS011;49201;53.426;10.300;2023-05-10T07:02:55;5.70;;;4.30;;
63110;SDS011;49201;53.426;10.300;2023-05-10T07:05:21;8.83;;;4.50;;
63110;SDS011;49201;53.426;10.300;2023-05-10T07:07:47;4.37;;;3.97;;
63110;SDS011;49201;53.426;10.300;2023-05-10T07:10:12;4.97;;;3.93;;
63110;SDS011;49201;53.426;10.300;2023-05-10T07:12:38;5.37;;;4.60;;
63110;SDS011;49201;53.426;10.300;2023-05-10T07:15:04;5.57;;;4.00;;
63110;SDS011;49201;53.426;10.300;2023-05-10T07:17:30;4.53;;;3.93;;
63110;SDS011;49201;53.426;10.300;2023-05-10T07:19:55;5.80;;;4.60;;
63110;SDS011;49201;53.426;10.300;2023-05-10T07:22:21;6.90;;;4.60;;
63110;SDS011;49201;53.426;10.300;2023-05-10T07:24:46;5.57;;;4.40;;
63110;SDS011;49201;53.426;10.300;2023-05-10T07:27:12;4.37;;;3.97;;
63110;SDS011;49201;53.426;10.300;2023-05-10T07:29:38;8.70;;;4.67;;
63110;SDS011;49201;53.426;10.300;2023-05-10T07:32:04;5.47;;;4.27;;
63110;SDS011;49201;53.426;10.300;2023-05-10T07:34:30;8.53;;;4.47;;
63110;SDS011;49201;53.426;10.300;2023-05-10T07:36:59;5.17;;;4.33;;
63110;SDS011;49201;53.426;10.300;2023-05-10T07:39:26;5.20;;;4.37;;
63110;SDS011;49201;53.426;10.300;2023-05-10T07:41:52;4.90;;;3.87;;
63110;SDS011;49201;53.426;10.300;2023-05-10T07:44:17;5.60;;;4.43;;
63110;SDS011;49201;53.426;10.300;2023-05-10T07:46:46;7.93;;;4.90;;
63110;SDS011;49201;53.426;10.300;2023-05-10T07:49:12;6.47;;;4.67;;
63110;SDS011;49201;53.426;10.300;2023-05-10T07:51:38;4.80;;;4.27;;
63110;SDS011;49201;53.426;10.300;2023-05-10T07:54:03;7.57;;;4.50;;
63110;SDS011;49201;53.426;10.300;2023-05-10T07:56:30;8.87;;;3.97;;
63110;SDS011;49201;53.426;10.300;2023-05-10T07:58:57;5.33;;;4.40;;
63110;SDS011;49201;53.426;10.300;2023-05-10T08:01:26;7.50;;;4.60;;
63110;SDS011;49201;53.426;10.300;2023-05-10T08:03:55;7.33;;;4.70;;
63110;SDS011;49201;53.426;10.300;2023-05-10T08:06:20;6.03;;;3.87;;
63110;SDS011;49201;53.426;10.300;2023-05-10T08:08:46;5.33;;;4.80;;
63110;SDS011;49201;53.426;10.300;2023-05-10T08:11:18;5.67;;;4.57;;
63110;SDS011;49201;53.426;10.300;2023-05-10T08:13:45;6.13;;;4.20;;
63110;SDS011;49201;53.426;10.300;2023-05-10T08:16:11;6.37;;;4.47;;
63110;SDS011;49201;53.426;10.300;2023-05-10T08:18:37;7.90;;;4.40;;
63110;SDS011;49201;53.426;10.300;2023-05-10T08:21:03;5.33;;;4.40;;
63110;SDS011;49201;53.426;10.300;2023-05-10T08:23:29;7.13;;;4.33;;
63110;SDS011;49201;53.426;10.300;2023-05-10T08:25:54;6.60;;;5.00;;
63110;SDS011;49201;53.426;10.300;2023-05-10T08:28:19;5.47;;;4.33;;
63110;SDS011;49201;53.426;10.300;2023-05-10T08:30:45;5.13;;;4.43;;
63110;SDS011;49201;53.426;10.300;2023-05-10T08:33:10;4.50;;;4.10;;
63110;SDS011;49201;53.426;10.300;2023-05-10T08:35:36;6.33;;;4.63;;
63110;SDS011;49201;53.426;10.300;2023-05-10T08:38:01;4.83;;;4.27;;
63110;SDS011;49201;53.426;10.300;2023-05-10T08:40:27;6.53;;;4.83;;
63110;SDS011;49201;53.426;10.300;2023-05-10T08:43:02;4.60;;;4.20;;
63110;SDS011;49201;53.426;10.300;2023-05-10T08:45:31;7.90;;;4.80;;
63110;SDS011;49201;53.426;10.300;2023-05-10T08:48:01;6.20;;;4.80;;
63110;SDS011;49201;53.426;10.300;2023-05-10T08:50:28;5.33;;;4.80;;
63110;SDS011;49201;53.426;10.300;2023-05-10T08:52:55;5.73;;;4.40;;
63110;SDS011;49201;53.426;10.300;2023-05-10T08:55:24;5.93;;;4.87;;
63110;SDS011;49201;53.426;10.300;2023-05-10T08:57:49;6.00;;;4.67;;
63110;SDS011;49201;53.426;10.300;2023-05-10T09:00:15;6.00;;;4.97;;
63110;SDS011;49201;53.426;10.300;2023-05-10T09:02:43;5.70;;;4.73;;
63110;SDS011;49201;53.426;10.300;2023-05-10T09:05:09;7.43;;;4.93;;
63110;SDS011;49201;53.426;10.300;2023-05-10T09:07:35;9.23;;;4.57;;
63110;SDS011;49201;53.426;10.300;2023-05-10T09:10:01;6.13;;;5.27;;
63110;SDS011;49201;53.426;10.300;2023-05-10T09:12:28;6.03;;;4.53;;
63110;SDS011;49201;53.426;10.300;2023-05-10T09:14:53;10.03;;;5.20;;
63110;SDS011;49201;53.426;10.300;2023-05-10T09:17:20;7.60;;;5.27;;
63110;SDS011;49201;53.426;10.300;2023-05-10T09:19:48;8.83;;;5.40;;
63110;SDS011;49201;53.426;10.300;2023-05-10T09:22:13;6.23;;;5.30;;
63110;SDS011;49201;53.426;10.300;2023-05-10T09:24:39;5.60;;;5.00;;
63110;SDS011;49201;53.426;10.300;2023-05-10T09:27:10;5.60;;;5.10;;
63110;SDS011;49201;53.426;10.300;2023-05-10T09:29:39;5.50;;;5.00;;
63110;SDS011;49201;53.426;10.300;2023-05-10T09:32:06;7.90;;;5.60;;
63110;SDS011;49201;53.426;10.300;2023-05-10T09:34:32;6.03;;;4.80;;
63110;SDS011;49201;53.426;10.300;2023-05-10T09:37:00;10.37;;;5.00;;
63110;SDS011;49201;53.426;10.300;2023-05-10T09:39:34;6.97;;;4.67;;
63110;SDS011;49201;53.426;10.300;2023-05-10T09:42:07;7.47;;;5.40;;
63110;SDS011;49201;53.426;10.300;2023-05-10T09:44:35;6.93;;;5.60;;
63110;SDS011;49201;53.426;10.300;2023-05-10T09:47:01;6.60;;;5.70;;
63110;SDS011;49201;53.426;10.300;2023-05-10T09:49:27;6.33;;;5.60;;
63110;SDS011;49201;53.426;10.300;2023-05-10T09:52:00;5.20;;;4.70;;
63110;SDS011;49201;53.426;10.300;2023-05-10T09:54:30;6.43;;;5.47;;
63110;SDS011;49201;53.426;10.300;2023-05-10T09:56:56;6.83;;;5.33;;
63110;SDS011;49201;53.426;10.300;2023-05-10T09:59:21;8.00;;;5.70;;
63110;SDS011;49201;53.426;10.300;2023-05-10T10:01:50;7.33;;;5.23;;
63110;SDS011;49201;53.426;10.300;2023-05-10T10:04:16;7.77;;;5.70;;
63110;SDS011;49201;53.426;10.300;2023-05-10T10:06:42;6.37;;;5.77;;
63110;SDS011;49201;53.426;10.300;2023-05-10T10:09:08;9.33;;;6.07;;
63110;SDS011;49201;53.426;10.300;2023-05-10T10:11:35;8.50;;;6.63;;
63110;SDS011;49201;53.426;10.300;2023-05-10T10:14:00;10.93;;;6.43;;
63110;SDS011;49201;53.426;10.300;2023-05-10T10:16:27;9.00;;;6.07;;
63110;SDS011;49201;53.426;10.300;2023-05-10T10:18:54;8.80;;;6.37;;
63110;SDS011;49201;53.426;10.300;2023-05-10T10:21:20;9.37;;;6.60;;
63110;SDS011;49201;53.426;10.300;2023-05-10T10:23:47;7.33;;;6.40;;
63110;SDS011;49201;53.426;10.300;2023-05-10T10:26:12;8.03;;;7.23;;
63110;SDS011;49201;53.426;10.300;2023-05-10T10:31:34;9.47;;;6.80;;
63110;SDS011;49201;53.426;10.300;2023-05-10T10:34:01;8.67;;;7.77;;
63110;SDS011;49201;53.426;10.300;2023-05-10T10:36:31;8.87;;;7.97;;
63110;SDS011;49201;53.426;10.300;2023-05-10T10:38:59;11.30;;;8.50;;
63110;SDS011;49201;53.426;10.300;2023-05-10T10:41:27;9.13;;;8.03;;
63110;SDS011;49201;53.426;10.300;2023-05-10T10:47:00;12.23;;;9.57;;
63110;SDS011;49201;53.426;10.300;2023-05-10T10:49:26;10.67;;;9.57;;
63110;SDS011;49201;53.426;10.300;2023-05-10T10:52:12;11.83;;;9.67;;
63110;SDS011;49201;53.426;10.300;2023-05-10T10:55:19;10.67;;;9.33;;
63110;SDS011;49201;53.426;10.300;2023-05-10T11:00:21;9.77;;;8.77;;
63110;SDS011;49201;53.426;10.300;2023-05-10T11:05:36;11.43;;;9.93;;
63110;SDS011;49201;53.426;10.300;2023-05-10T11:10:48;10.00;;;9.00;;
63110;SDS011;49201;53.426;10.300;2023-05-10T11:13:17;12.17;;;10.23;;
63110;SDS011;49201;53.426;10.300;2023-05-10T11:16:12;11.37;;;10.17;;
63110;SDS011;49201;53.426;10.300;2023-05-10T11:18:52;11.57;;;10.27;;
63110;SDS011;49201;53.426;10.300;2023-05-10T11:21:33;10.40;;;9.30;;
63110;SDS011;49201;53.426;10.300;2023-05-10T11:24:00;11.17;;;10.07;;
63110;SDS011;49201;53.426;10.300;2023-05-10T11:26:34;10.90;;;9.60;;
63110;SDS011;49201;53.426;10.300;2023-05-10T11:29:00;11.43;;;10.27;;
63110;SDS011;49201;53.426;10.300;2023-05-10T11:31:27;10.63;;;9.00;;
63110;SDS011;49201;53.426;10.300;2023-05-10T11:33:54;10.43;;;9.43;;
63110;SDS011;49201;53.426;10.300;2023-05-10T11:36:23;11.90;;;10.20;;
63110;SDS011;49201;53.426;10.300;2023-05-10T11:38:51;10.27;;;9.17;;
63110;SDS011;49201;53.426;10.300;2023-05-10T11:41:17;10.90;;;9.80;;
63110;SDS011;49201;53.426;10.300;2023-05-10T11:43:48;11.63;;;10.43;;
63110;SDS011;49201;53.426;10.300;2023-05-10T11:46:15;12.13;;;10.40;;
63110;SDS011;49201;53.426;10.300;2023-05-10T11:48:45;11.13;;;9.83;;
63110;SDS011;49201;53.426;10.300;2023-05-10T11:51:11;11.17;;;10.07;;
63110;SDS011;49201;53.426;10.300;2023-05-10T11:53:37;12.23;;;11.00;;
63110;SDS011;49201;53.426;10.300;2023-05-10T11:56:09;12.87;;;11.57;;
63110;SDS011;49201;53.426;10.300;2023-05-10T11:58:36;12.70;;;11.40;;
63110;SDS011;49201;53.426;10.300;2023-05-10T12:01:03;13.30;;;11.47;;
63110;SDS011;49201;53.426;10.300;2023-05-10T12:03:30;12.67;;;11.40;;
63110;SDS011;49201;53.426;10.300;2023-05-10T12:05:56;12.73;;;11.47;;
63110;SDS011;49201;53.426;10.300;2023-05-10T12:08:27;11.87;;;10.63;;
63110;SDS011;49201;53.426;10.300;2023-05-10T12:11:03;13.10;;;11.33;;
63110;SDS011;49201;53.426;10.300;2023-05-10T12:13:30;12.73;;;11.37;;
63110;SDS011;49201;53.426;10.300;2023-05-10T12:15:59;12.93;;;11.63;;
63110;SDS011;49201;53.426;10.300;2023-05-10T12:18:25;13.40;;;12.00;;
63110;SDS011;49201;53.426;10.300;2023-05-10T12:20:54;13.17;;;11.87;;
63110;SDS011;49201;53.426;10.300;2023-05-10T12:23:20;13.20;;;11.90;;
63110;SDS011;49201;53.426;10.300;2023-05-10T12:25:45;12.53;;;11.33;;
63110;SDS011;49201;53.426;10.300;2023-05-10T12:28:11;13.33;;;12.03;;
63110;SDS011;49201;53.426;10.300;2023-05-10T12:30:37;13.97;;;12.67;;
63110;SDS011;49201;53.426;10.300;2023-05-10T12:33:10;13.53;;;11.37;;
63110;SDS011;49201;53.426;10.300;2023-05-10T12:35:45;11.93;;;10.83;;
63110;SDS011;49201;53.426;10.300;2023-05-10T12:40:50;13.33;;;12.03;;
63110;SDS011;49201;53.426;10.300;2023-05-10T12:43:15;13.33;;;11.77;;
63110;SDS011;49201;53.426;10.300;2023-05-10T12:45:41;12.70;;;11.20;;
63110;SDS011;49201;53.426;10.300;2023-05-10T12:48:06;13.27;;;11.97;;
63110;SDS011;49201;53.426;10.300;2023-05-10T12:50:31;12.67;;;11.47;;
63110;SDS011;49201;53.426;10.300;2023-05-10T12:52:57;11.53;;;10.33;;
63110;SDS011;49201;53.426;10.300;2023-05-10T12:55:22;10.27;;;9.27;;
63110;SDS011;49201;53.426;10.300;2023-05-10T12:57:48;10.47;;;8.50;;
63110;SDS011;49201;53.426;10.300;2023-05-10T13:00:13;10.03;;;9.10;;
63110;SDS011;49201;53.426;10.300;2023-05-10T13:02:39;9.87;;;8.87;;
63110;SDS011;49201;53.426;10.300;2023-05-10T13:05:05;9.53;;;8.50;;
63110;SDS011;49201;53.426;10.300;2023-05-10T13:07:30;8.40;;;7.57;;
63110;SDS011;49201;53.426;10.300;2023-05-10T13:09:56;8.80;;;7.90;;
63110;SDS011;49201;53.426;10.300;2023-05-10T13:12:21;10.93;;;9.30;;
63110;SDS011;49201;53.426;10.300;2023-05-10T13:14:47;10.70;;;9.53;;
63110;SDS011;49201;53.426;10.300;2023-05-10T13:17:12;10.10;;;9.20;;
63110;SDS011;49201;53.426;10.300;2023-05-10T13:19:37;9.23;;;8.33;;
63110;SDS011;49201;53.426;10.300;2023-05-10T13:22:03;9.97;;;8.80;;
63110;SDS011;49201;53.426;10.300;2023-05-10T13:24:29;9.97;;;9.07;;
63110;SDS011;49201;53.426;10.300;2023-05-10T13:26:54;10.00;;;9.10;;
63110;SDS011;49201;53.426;10.300;2023-05-10T13:29:20;9.93;;;8.83;;
63110;SDS011;49201;53.426;10.300;2023-05-10T13:31:47;9.33;;;8.43;;
63110;SDS011;49201;53.426;10.300;2023-05-10T13:34:13;8.70;;;7.90;;
63110;SDS011;49201;53.426;10.300;2023-05-10T13:36:38;9.17;;;8.27;;
63110;SDS011;49201;53.426;10.300;2023-05-10T13:39:04;9.83;;;7.63;;
63110;SDS011;49201;53.426;10.300;2023-05-10T13:41:30;9.27;;;8.37;;
63110;SDS011;49201;53.426;10.300;2023-05-10T13:43:55;9.47;;;8.57;;
63110;SDS011;49201;53.426;10.300;2023-05-10T13:46:21;7.90;;;7.20;;
63110;SDS011;49201;53.426;10.300;2023-05-10T13:48:46;7.80;;;7.10;;
63110;SDS011;49201;53.426;10.300;2023-05-10T13:51:12;8.30;;;7.40;;
63110;SDS011;49201;53.426;10.300;2023-05-10T13:53:37;8.70;;;7.90;;
63110;SDS011;49201;53.426;10.300;2023-05-10T13:56:03;7.93;;;7.13;;
63110;SDS011;49201;53.426;10.300;2023-05-10T13:58:28;8.77;;;7.80;;
63110;SDS011;49201;53.426;10.300;2023-05-10T14:00:55;9.30;;;8.50;;
63110;SDS011;49201;53.426;10.300;2023-05-10T14:03:21;11.17;;;10.07;;
63110;SDS011;49201;53.426;10.300;2023-05-10T14:05:46;9.80;;;8.80;;
63110;SDS011;49201;53.426;10.300;2023-05-10T14:08:12;9.53;;;8.63;;
63110;SDS011;49201;53.426;10.300;2023-05-10T14:10:38;9.53;;;8.53;;
63110;SDS011;49201;53.426;10.300;2023-05-10T14:13:04;10.67;;;8.63;;
63110;SDS011;49201;53.426;10.300;2023-05-10T14:15:30;9.30;;;8.43;;
63110;SDS011;49201;53.426;10.300;2023-05-10T14:17:55;9.30;;;8.50;;
63110;SDS011;49201;53.426;10.300;2023-05-10T14:20:21;8.90;;;8.10;;
63110;SDS011;49201;53.426;10.300;2023-05-10T14:22:46;9.40;;;8.40;;
63110;SDS011;49201;53.426;10.300;2023-05-10T14:25:12;9.27;;;7.47;;
63110;SDS011;49201;53.426;10.300;2023-05-10T14:27:38;8.67;;;7.83;;
63110;SDS011;49201;53.426;10.300;2023-05-10T14:30:04;8.03;;;7.23;;
63110;SDS011;49201;53.426;10.300;2023-05-10T14:32:29;7.83;;;7.13;;
63110;SDS011;49201;53.426;10.300;2023-05-10T14:34:57;7.20;;;6.57;;
63110;SDS011;49201;53.426;10.300;2023-05-10T14:37:22;7.47;;;6.77;;
63110;SDS011;49201;53.426;10.300;2023-05-10T14:39:47;8.07;;;7.37;;
63110;SDS011;49201;53.426;10.300;2023-05-10T14:42:13;8.07;;;7.37;;
63110;SDS011;49201;53.426;10.300;2023-05-10T14:44:38;8.23;;;7.20;;
63110;SDS011;49201;53.426;10.300;2023-05-10T14:47:04;8.67;;;7.87;;
63110;SDS011;49201;53.426;10.300;2023-05-10T14:49:30;7.83;;;7.03;;
63110;SDS011;49201;53.426;10.300;2023-05-10T14:51:55;7.93;;;7.13;;
63110;SDS011;49201;53.426;10.300;2023-05-10T14:54:21;8.63;;;7.83;;
63110;SDS011;49201;53.426;10.300;2023-05-10T14:56:46;8.80;;;8.00;;
63110;SDS011;49201;53.426;10.300;2023-05-10T14:59:13;8.87;;;8.07;;
63110;SDS011;49201;53.426;10.300;2023-05-10T15:01:39;8.10;;;7.30;;
63110;SDS011;49201;53.426;10.300;2023-05-10T15:04:06;6.73;;;6.13;;